Time;durP1;ratioP1;P1;durP2;ratioP2;P2;SDS_P1;SDS_P2;PMS_P1;PMS_P2;Temp;Humidity;BMP_temperature;BMP_pressure;BME280_temperature;BME280_humidity;BME280_pressure;Samples;Min_cycle;Max_cycle;Signal;HPM_P1;HPM_P2
2022/03/07 00:01:45;;;;;;;19.50;18.80;;;17.70;45.70;;;;;;5051489;28;20448;-45
2022/03/07 00:04:14;;;;;;;20.13;19.33;;;17.60;45.80;;;;;;5051258;28;20460;-45
2022/03/07 00:06:41;;;;;;;20.57;19.67;;;17.60;45.80;;;;;;5051304;28;20459;-45
2022/03/07 00:09:07;;;;;;;19.13;18.43;;;17.50;45.80;;;;;;5051253;28;20457;-45
2022/03/07 00:11:35;;;;;;;18.93;18.33;;;17.50;45.90;;;;;;5051328;28;20456;-45
2022/03/07 00:14:02;;;;;;;19.60;18.90;;;17.40;45.90;;;;;;5050995;28;20823;-46
2022/03/07 00:16:30;;;;;;;19.70;19.00;;;17.40;45.90;;;;;;5051540;28;20487;-45
2022/03/07 00:18:57;;;;;;;19.60;18.80;;;17.40;45.90;;;;;;5051098;28;20448;-46
2022/03/07 00:21:24;;;;;;;19.50;18.80;;;17.40;46.10;;;;;;5051350;28;20448;-45
2022/03/07 00:23:51;;;;;;;19.70;18.90;;;17.30;46.10;;;;;;5050853;28;20482;-45
2022/03/07 00:26:18;;;;;;;19.93;19.13;;;17.30;46.10;;;;;;5051644;28;20448;-45
2022/03/07 00:28:45;;;;;;;19.87;19.07;;;17.20;46.10;;;;;;5050992;28;20452;-45
2022/03/07 00:31:13;;;;;;;19.30;18.60;;;17.20;46.20;;;;;;5051579;28;20444;-45
2022/03/07 00:33:42;;;;;;;19.17;18.47;;;17.20;46.30;;;;;;5050912;28;20837;-45
2022/03/07 00:36:09;;;;;;;19.30;18.60;;;17.20;46.40;;;;;;5051218;28;20491;-45
2022/03/07 00:38:36;;;;;;;20.57;19.77;;;17.20;46.40;;;;;;5051076;28;20448;-45
2022/03/07 00:41:03;;;;;;;19.40;18.70;;;17.10;46.40;;;;;;5051128;28;20451;-45
2022/03/07 00:43:30;;;;;;;19.30;18.60;;;17.10;46.50;;;;;;5051088;28;20452;-45
2022/03/07 00:45:57;;;;;;;19.53;18.83;;;17.10;46.40;;;;;;5055226;28;20452;-47
2022/03/07 00:48:23;;;;;;;19.87;19.13;;;17.10;46.50;;;;;;5054853;28;20448;-45
2022/03/07 00:50:53;;;;;;;19.23;18.53;;;17.00;46.50;;;;;;5054786;28;20448;-45
2022/03/07 00:53:21;;;;;;;19.60;18.90;;;17.00;46.50;;;;;;5054670;28;20448;-45
2022/03/07 00:55:48;;;;;;;19.53;18.83;;;17.00;46.60;;;;;;5054629;28;20844;-45
2022/03/07 00:58:15;;;;;;;20.47;19.63;;;17.00;46.70;;;;;;5054557;28;20809;-45
2022/03/07 01:00:42;;;;;;;19.80;19.03;;;16.90;46.70;;;;;;5054886;28;20444;-45
2022/03/07 01:03:11;;;;;;;19.77;19.03;;;16.90;46.70;;;;;;5054381;28;20503;-46
2022/03/07 01:05:39;;;;;;;19.50;18.80;;;16.90;46.70;;;;;;5054833;28;20457;-46
2022/03/07 01:08:08;;;;;;;19.80;19.00;;;16.90;46.70;;;;;;5054301;28;20440;-48
2022/03/07 01:10:35;;;;;;;19.87;19.07;;;16.90;46.80;;;;;;5034443;28;20449;-45
2022/03/07 01:13:02;;;;;;;19.60;18.83;;;16.80;46.70;;;;;;5042982;28;20822;-46
2022/03/07 01:15:29;;;;;;;20.10;19.30;;;16.80;46.80;;;;;;5054268;28;20476;-45
2022/03/07 01:17:59;;;;;;;19.90;19.10;;;16.80;46.80;;;;;;5054202;28;20819;-45
2022/03/07 01:20:26;;;;;;;19.60;18.90;;;16.80;46.90;;;;;;5054358;28;20551;-45
2022/03/07 01:22:53;;;;;;;20.10;19.30;;;16.80;46.90;;;;;;5053984;28;20836;-45
2022/03/07 01:25:21;;;;;;;19.77;18.97;;;16.80;46.90;;;;;;5054194;28;20476;-47
2022/03/07 01:27:48;;;;;;;19.10;18.40;;;16.80;46.90;;;;;;5053937;28;20448;-45
2022/03/07 01:30:15;;;;;;;19.70;19.00;;;16.80;46.90;;;;;;5054123;28;20468;-45
2022/03/07 01:32:41;;;;;;;19.60;18.90;;;16.70;46.80;;;;;;5053914;28;20823;-45
2022/03/07 01:35:09;;;;;;;20.27;19.47;;;16.70;46.80;;;;;;5054349;28;20475;-47
2022/03/07 01:37:36;;;;;;;19.97;19.17;;;16.70;46.90;;;;;;5053991;28;20492;-45
2022/03/07 01:40:03;;;;;;;19.13;18.43;;;16.70;46.90;;;;;;5053778;28;20809;-46
2022/03/07 01:42:31;;;;;;;19.53;18.83;;;16.70;47.00;;;;;;5053790;28;20809;-45
2022/03/07 01:45:08;;;;;;;19.40;18.60;;;16.70;47.00;;;;;;5053837;28;20480;-45
2022/03/07 01:47:35;;;;;;;19.70;18.90;;;16.60;47.00;;;;;;5053835;28;20444;-45
2022/03/07 01:50:01;;;;;;;19.00;18.30;;;16.60;47.00;;;;;;5053565;28;20440;-47
2022/03/07 01:52:28;;;;;;;19.80;19.00;;;16.60;47.00;;;;;;5053475;28;20453;-45
2022/03/07 01:54:55;;;;;;;19.90;19.10;;;16.60;47.00;;;;;;5053184;28;20491;-45
2022/03/07 01:57:22;;;;;;;19.70;18.97;;;16.60;47.10;;;;;;5053615;28;20476;-45
2022/03/07 01:59:50;;;;;;;18.93;18.33;;;16.50;47.10;;;;;;5053316;28;20945;-46
2022/03/07 02:02:17;;;;;;;19.20;18.50;;;16.60;47.10;;;;;;5053327;28;20448;-46
2022/03/07 02:04:44;;;;;;;19.30;18.60;;;16.50;47.10;;;;;;5053549;28;20475;-46
2022/03/07 02:07:10;;;;;;;19.60;18.90;;;16.50;47.10;;;;;;5053382;28;20490;-45
2022/03/07 02:09:37;;;;;;;19.90;19.10;;;16.50;47.10;;;;;;5053221;28;20448;-45
2022/03/07 02:12:04;;;;;;;19.20;18.50;;;16.50;47.10;;;;;;5053212;28;20451;-45
2022/03/07 02:14:34;;;;;;;19.77;18.97;;;16.50;47.20;;;;;;5053263;28;20885;-46
2022/03/07 02:17:03;;;;;;;20.20;19.40;;;16.50;47.20;;;;;;5053230;28;21005;-46
2022/03/07 02:19:29;;;;;;;20.37;19.50;;;16.40;47.20;;;;;;5053042;28;20961;-46
2022/03/07 02:22:01;;;;;;;19.10;18.40;;;16.40;47.20;;;;;;5052992;28;20456;-45
2022/03/07 02:24:28;;;;;;;19.43;18.73;;;16.40;47.20;;;;;;5053017;28;20473;-46
2022/03/07 02:26:59;;;;;;;19.10;18.40;;;16.40;47.20;;;;;;5053123;28;20506;-45
2022/03/07 02:29:27;;;;;;;19.20;18.50;;;16.40;47.20;;;;;;5052478;28;20452;-46
2022/03/07 02:31:54;;;;;;;19.70;18.90;;;16.40;47.30;;;;;;5052963;28;20436;-46
2022/03/07 02:34:20;;;;;;;20.00;19.20;;;16.30;47.20;;;;;;5053344;28;20477;-45
2022/03/07 02:36:47;;;;;;;19.40;18.70;;;16.30;47.30;;;;;;5052492;28;20837;-45
2022/03/07 02:39:16;;;;;;;19.53;18.70;;;16.30;47.30;;;;;;5052573;28;20460;-46
2022/03/07 02:41:43;;;;;;;19.57;18.80;;;16.30;47.40;;;;;;5052776;28;20456;-45
2022/03/07 02:44:10;;;;;;;19.63;18.83;;;16.30;47.40;;;;;;5052449;28;20476;-45
2022/03/07 02:46:37;;;;;;;19.30;18.53;;;16.20;47.40;;;;;;5052505;28;20451;-45
2022/03/07 02:49:05;;;;;;;20.07;19.27;;;16.20;47.40;;;;;;5052465;28;20440;-46
2022/03/07 02:51:32;;;;;;;19.83;19.03;;;16.20;47.40;;;;;;5052698;28;20455;-45
2022/03/07 02:53:59;;;;;;;20.30;19.50;;;16.20;47.40;;;;;;5052548;28;20459;-45
2022/03/07 02:56:27;;;;;;;19.60;18.77;;;16.20;47.50;;;;;;5052218;28;20485;-45
2022/03/07 02:58:53;;;;;;;19.70;19.00;;;16.20;47.50;;;;;;5052210;28;20462;-45
2022/03/07 03:01:20;;;;;;;19.70;18.90;;;16.10;47.40;;;;;;5052425;28;20541;-47
2022/03/07 03:03:47;;;;;;;20.13;19.30;;;16.10;47.50;;;;;;5052244;28;20464;-47
2022/03/07 03:06:14;;;;;;;19.33;18.63;;;16.10;47.50;;;;;;5051326;28;20433;-45
2022/03/07 03:08:40;;;;;;;19.77;19.07;;;16.10;47.60;;;;;;5051919;28;20801;-47
2022/03/07 03:11:07;;;;;;;19.80;19.00;;;16.00;47.60;;;;;;5052116;28;20451;-45
2022/03/07 03:13:35;;;;;;;19.80;19.00;;;16.00;47.60;;;;;;5052105;28;20464;-45
2022/03/07 03:16:02;;;;;;;19.57;18.77;;;16.00;47.60;;;;;;5051943;28;20471;-47
2022/03/07 03:18:29;;;;;;;19.27;18.53;;;16.00;47.60;;;;;;5051868;28;20444;-46
2022/03/07 03:20:56;;;;;;;20.03;19.23;;;16.00;47.60;;;;;;5052054;28;20810;-45
2022/03/07 03:23:23;;;;;;;19.47;18.57;;;16.00;48.20;;;;;;5051998;28;20444;-45
2022/03/07 03:25:50;;;;;;;19.90;19.20;;;15.90;47.60;;;;;;5051848;28;20451;-45
2022/03/07 03:28:17;;;;;;;19.33;18.63;;;15.90;47.70;;;;;;5051882;28;20441;-45
2022/03/07 03:30:45;;;;;;;19.40;18.70;;;15.90;47.70;;;;;;5051944;28;20448;-46
2022/03/07 03:33:12;;;;;;;19.47;18.77;;;15.90;47.60;;;;;;5051882;28;20938;-45
2022/03/07 03:35:39;;;;;;;19.47;18.77;;;15.90;47.60;;;;;;5051197;28;20444;-45
2022/03/07 03:38:08;;;;;;;19.70;18.90;;;15.90;47.70;;;;;;5051617;28;20487;-45
2022/03/07 03:40:35;;;;;;;19.67;18.97;;;15.90;47.70;;;;;;5051788;28;20448;-45
2022/03/07 03:43:02;;;;;;;19.40;18.70;;;15.90;47.70;;;;;;5051673;28;20448;-45
2022/03/07 03:45:29;;;;;;;19.70;18.90;;;15.80;47.60;;;;;;5051524;28;20479;-44
2022/03/07 03:47:57;;;;;;;18.97;18.27;;;15.80;47.70;;;;;;5051581;28;20446;-45
2022/03/07 03:50:24;;;;;;;19.77;18.97;;;15.80;47.70;;;;;;5051905;28;20445;-45
2022/03/07 03:52:51;;;;;;;19.50;18.70;;;15.80;47.70;;;;;;5051281;28;20440;-47
2022/03/07 03:55:18;;;;;;;20.03;19.23;;;15.80;47.70;;;;;;5051555;28;20463;-45
2022/03/07 03:57:45;;;;;;;20.00;19.20;;;15.80;47.70;;;;;;5051613;28;21008;-45
2022/03/07 04:00:15;;;;;;;19.60;18.77;;;15.80;47.70;;;;;;5051628;28;20440;-45
2022/03/07 04:02:43;;;;;;;20.20;19.40;;;15.80;47.70;;;;;;5051284;28;20452;-45
2022/03/07 04:05:11;;;;;;;19.20;18.50;;;15.80;47.70;;;;;;5051421;28;20974;-46
2022/03/07 04:07:38;;;;;;;19.60;18.80;;;15.70;47.70;;;;;;5051436;28;20444;-44
2022/03/07 04:10:06;;;;;;;19.73;18.93;;;15.70;47.70;;;;;;5051323;28;20467;-49
2022/03/07 04:12:33;;;;;;;19.90;19.00;;;15.70;47.70;;;;;;5051182;28;20444;-48
2022/03/07 04:14:59;;;;;;;19.93;19.13;;;15.70;47.70;;;;;;5051112;28;20475;-45
2022/03/07 04:17:26;;;;;;;20.10;19.37;;;15.70;47.70;;;;;;5051867;28;20485;-44
2022/03/07 04:19:53;;;;;;;19.80;19.00;;;15.70;47.70;;;;;;5055287;28;20444;-45
2022/03/07 04:22:21;;;;;;;19.77;18.97;;;15.70;47.70;;;;;;5055386;28;20452;-48
2022/03/07 04:24:48;;;;;;;19.93;19.13;;;15.70;47.70;;;;;;5055249;28;20464;-45
2022/03/07 04:27:14;;;;;;;19.63;18.80;;;15.70;47.80;;;;;;5055261;28;20471;-46
2022/03/07 04:29:41;;;;;;;19.80;19.00;;;15.60;47.80;;;;;;5055066;28;20449;-45
2022/03/07 04:32:08;;;;;;;20.20;19.40;;;15.60;47.70;;;;;;5055106;28;20952;-45
2022/03/07 04:34:35;;;;;;;20.60;19.80;;;15.60;47.80;;;;;;5054899;28;20468;-45
2022/03/07 04:37:02;;;;;;;19.87;19.07;;;15.60;47.90;;;;;;5055120;28;21013;-47
2022/03/07 04:39:30;;;;;;;19.90;19.10;;;15.60;47.90;;;;;;5054892;28;20444;-46
2022/03/07 04:41:57;;;;;;;19.90;19.10;;;15.60;47.90;;;;;;5055190;28;20460;-47
2022/03/07 04:44:23;;;;;;;20.10;19.30;;;15.60;47.90;;;;;;5054843;28;20483;-48
2022/03/07 04:46:50;;;;;;;19.73;18.93;;;15.60;47.90;;;;;;5054901;28;20451;-47
2022/03/07 04:49:17;;;;;;;20.00;19.20;;;15.60;48.40;;;;;;5054769;28;20744;-44
2022/03/07 04:51:45;;;;;;;19.53;18.73;;;15.50;47.80;;;;;;5054653;28;20444;-45
2022/03/07 04:54:13;;;;;;;20.17;19.37;;;15.50;47.80;;;;;;5054638;28;20464;-45
2022/03/07 04:56:43;;;;;;;19.90;19.10;;;15.50;47.90;;;;;;5054727;28;20451;-46
2022/03/07 04:59:12;;;;;;;20.27;19.47;;;15.50;47.90;;;;;;5054520;28;20456;-45
2022/03/07 05:01:38;;;;;;;20.60;19.70;;;15.40;47.90;;;;;;5054597;28;20535;-45
2022/03/07 05:04:05;;;;;;;20.73;19.80;;;15.50;48.00;;;;;;5054607;28;20467;-44
2022/03/07 05:06:32;;;;;;;20.53;19.73;;;15.40;47.90;;;;;;5054566;28;20448;-44
2022/03/07 05:08:59;;;;;;;20.83;19.93;;;15.40;47.90;;;;;;5054381;28;20444;-45
2022/03/07 05:11:25;;;;;;;20.30;19.40;;;15.40;47.90;;;;;;5054586;28;20452;-45
2022/03/07 05:13:53;;;;;;;20.77;19.87;;;15.40;47.90;;;;;;5054353;28;20464;-47
2022/03/07 05:16:20;;;;;;;20.47;19.57;;;15.40;48.00;;;;;;5054497;28;20467;-44
2022/03/07 05:18:47;;;;;;;20.60;19.70;;;15.40;48.00;;;;;;5054318;28;20475;-44
2022/03/07 05:21:14;;;;;;;21.40;20.40;;;15.40;48.00;;;;;;5054121;28;20467;-47
2022/03/07 05:23:40;;;;;;;20.87;19.97;;;15.40;48.10;;;;;;5053632;28;20471;-44
2022/03/07 05:26:08;;;;;;;20.53;19.63;;;15.30;48.00;;;;;;5054295;28;20938;-44
2022/03/07 05:28:35;;;;;;;20.03;19.23;;;15.30;48.00;;;;;;5054053;28;20451;-45
2022/03/07 05:31:03;;;;;;;20.23;19.40;;;15.40;48.30;;;;;;5052031;28;20448;-50
2022/03/07 05:33:30;;;;;;;21.13;20.23;;;15.40;47.70;;;;;;5042507;28;20474;-50
2022/03/07 05:35:57;;;;;;;21.00;19.90;;;15.30;47.30;;;;;;5041823;28;20455;-47
2022/03/07 05:38:24;;;;;;;21.70;20.60;;;15.40;47.30;;;;;;5041713;28;20488;-45
2022/03/07 05:40:50;;;;;;;21.07;19.87;;;15.30;46.50;;;;;;5042035;28;21005;-48
2022/03/07 05:43:17;;;;;;;21.13;20.10;;;15.30;46.20;;;;;;5041874;28;20453;-47
2022/03/07 05:45:44;;;;;;;21.30;20.30;;;15.30;46.30;;;;;;5042073;28;20456;-46
2022/03/07 05:48:12;;;;;;;18.20;17.40;;;15.40;46.80;;;;;;5041531;28;20471;-47
2022/03/07 05:50:39;;;;;;;18.37;17.77;;;15.70;48.10;;;;;;5041624;28;20456;-49
2022/03/07 05:53:06;;;;;;;16.90;16.20;;;16.20;48.30;;;;;;5040700;28;20455;-46
2022/03/07 05:55:33;;;;;;;19.33;18.53;;;16.60;47.50;;;;;;5041415;28;20472;-46
2022/03/07 05:58:00;;;;;;;19.00;18.30;;;17.00;46.90;;;;;;5042320;28;20488;-49
2022/03/07 06:00:28;;;;;;;18.50;17.90;;;17.40;46.50;;;;;;5041126;28;20449;-46
2022/03/07 06:02:54;;;;;;;19.20;18.50;;;17.80;46.10;;;;;;5041606;28;21044;-46
2022/03/07 06:05:23;;;;;;;19.13;18.33;;;18.10;45.60;;;;;;5041489;28;20476;-49
2022/03/07 06:07:53;;;;;;;24.87;23.93;;;18.30;45.10;;;;;;5041650;28;20453;-47
2022/03/07 06:10:21;;;;;;;23.53;22.53;;;18.50;45.20;;;;;;5041364;28;20529;-56
2022/03/07 06:12:47;;;;;;;22.30;21.47;;;18.70;44.70;;;;;;5043707;28;20458;-56
2022/03/07 06:15:14;;;;;;;21.83;20.93;;;18.70;42.90;;;;;;5040933;28;20483;-47
2022/03/07 06:17:50;;;;;;;21.50;20.60;;;18.70;42.00;;;;;;5040393;28;20796;-45
2022/03/07 06:20:17;;;;;;;23.27;22.40;;;18.90;41.60;;;;;;5040906;28;20237;-44
2022/03/07 06:22:45;;;;;;;21.00;20.20;;;19.00;41.30;;;;;;5040367;28;20816;-45
2022/03/07 06:25:12;;;;;;;25.60;24.60;;;19.10;41.10;;;;;;5041101;28;20746;-59
2022/03/07 06:27:39;;;;;;;26.30;25.20;;;19.10;40.80;;;;;;5041540;28;20961;-44
2022/03/07 06:30:08;;;;;;;25.43;24.50;;;19.10;40.60;;;;;;5040660;28;20448;-45
2022/03/07 06:32:35;;;;;;;23.73;22.63;;;19.10;40.70;;;;;;5040672;28;20474;-44
2022/03/07 06:35:02;;;;;;;23.20;22.30;;;19.00;40.50;;;;;;5040758;28;20753;-45
2022/03/07 06:37:28;;;;;;;24.43;23.53;;;19.00;40.60;;;;;;5040600;28;21084;-47
2022/03/07 06:39:57;;;;;;;23.27;22.37;;;19.00;40.50;;;;;;5040753;28;21052;-48
2022/03/07 06:42:24;;;;;;;23.37;22.37;;;18.90;40.50;;;;;;5040666;28;20452;-47
2022/03/07 06:44:50;;;;;;;25.60;24.60;;;18.90;40.50;;;;;;5040474;28;20527;-47
2022/03/07 06:47:17;;;;;;;27.13;26.03;;;18.80;40.50;;;;;;5040734;28;20444;-46
2022/03/07 06:49:47;;;;;;;25.70;24.70;;;18.80;40.50;;;;;;5040329;28;21224;-47
2022/03/07 06:52:14;;;;;;;23.80;22.80;;;18.80;40.50;;;;;;5040894;28;20452;-45
2022/03/07 06:54:40;;;;;;;23.70;22.80;;;18.80;40.50;;;;;;5040574;28;21259;-43
2022/03/07 06:57:08;;;;;;;25.27;24.27;;;18.70;40.40;;;;;;5040577;28;20463;-46
2022/03/07 06:59:36;;;;;;;24.00;23.00;;;18.70;40.50;;;;;;5040302;28;20463;-47
2022/03/07 07:02:03;;;;;;;24.37;23.37;;;18.70;40.50;;;;;;5040155;28;20458;-47
2022/03/07 07:04:30;;;;;;;23.73;22.83;;;18.70;40.70;;;;;;5040877;28;20479;-45
2022/03/07 07:06:57;;;;;;;24.60;23.60;;;18.80;40.80;;;;;;5040446;28;20440;-45
2022/03/07 07:09:24;;;;;;;23.30;22.40;;;18.80;40.70;;;;;;5040210;28;20441;-45
2022/03/07 07:11:50;;;;;;;22.80;21.90;;;18.80;40.60;;;;;;5040279;28;20457;-44
2022/03/07 07:14:18;;;;;;;24.10;23.03;;;18.80;40.50;;;;;;5040087;28;20472;-46
2022/03/07 07:16:45;;;;;;;24.30;23.40;;;18.80;40.40;;;;;;5040467;28;21211;-44
2022/03/07 07:19:12;;;;;;;24.27;23.17;;;18.80;40.30;;;;;;5039782;28;20480;-50
2022/03/07 07:21:40;;;;;;;24.80;23.77;;;18.80;40.30;;;;;;5039893;28;20456;-52
2022/03/07 07:24:07;;;;;;;22.87;21.97;;;18.80;40.20;;;;;;5040041;28;20852;-46
2022/03/07 07:26:34;;;;;;;24.60;23.60;;;18.80;40.20;;;;;;5039977;28;20448;-46
2022/03/07 07:29:01;;;;;;;24.37;23.37;;;18.80;40.20;;;;;;5040079;28;20927;-44
2022/03/07 07:31:29;;;;;;;24.77;23.67;;;18.80;40.30;;;;;;5039628;28;20471;-45
2022/03/07 07:33:56;;;;;;;25.23;24.07;;;18.90;41.00;;;;;;5039919;28;21009;-47
2022/03/07 07:36:22;;;;;;;23.50;22.60;;;19.30;40.60;;;;;;5039856;28;20448;-50
2022/03/07 07:38:49;;;;;;;22.37;21.47;;;19.50;40.00;;;;;;5039765;28;20824;-48
2022/03/07 07:41:16;;;;;;;22.60;21.70;;;19.70;40.00;;;;;;5039660;28;21282;-49
2022/03/07 07:43:42;;;;;;;22.77;21.90;;;20.10;40.20;;;;;;5039501;28;20487;-50
2022/03/07 07:46:09;;;;;;;25.60;24.50;;;20.60;39.80;;;;;;5039753;28;20521;-49
2022/03/07 07:48:37;;;;;;;24.50;23.57;;;20.90;39.10;;;;;;5039434;28;20470;-54
2022/03/07 07:51:04;;;;;;;21.20;20.30;;;21.00;38.60;;;;;;5039277;28;20769;-49
2022/03/07 07:53:32;;;;;;;21.47;20.57;;;21.20;38.30;;;;;;5038884;28;20893;-48
2022/03/07 07:55:58;;;;;;;22.40;21.40;;;21.20;38.10;;;;;;5039503;28;20634;-50
2022/03/07 07:58:25;;;;;;;24.50;23.50;;;21.20;37.90;;;;;;5039358;28;20488;-49
2022/03/07 08:00:52;;;;;;;23.60;22.50;;;21.30;37.90;;;;;;5039493;28;20814;-46
2022/03/07 08:03:18;;;;;;;23.20;22.20;;;21.30;37.80;;;;;;5039648;28;20467;-46
2022/03/07 08:05:48;;;;;;;20.80;20.00;;;21.30;37.80;;;;;;5039405;28;20453;-49
2022/03/07 08:08:15;;;;;;;21.37;20.47;;;21.50;37.90;;;;;;5039318;28;20456;-48
2022/03/07 08:10:42;;;;;;;22.63;21.63;;;21.70;37.70;;;;;;5039446;28;20455;-48
2022/03/07 08:13:09;;;;;;;26.80;25.67;;;21.90;37.40;;;;;;5039561;28;20541;-51
2022/03/07 08:15:36;;;;;;;23.90;22.90;;;22.00;37.00;;;;;;5039503;28;20476;-47
2022/03/07 08:18:03;;;;;;;24.33;23.33;;;22.10;36.60;;;;;;5039028;28;21004;-48
2022/03/07 08:20:29;;;;;;;24.60;23.50;;;22.10;36.50;;;;;;5039340;28;20475;-48
2022/03/07 08:22:57;;;;;;;24.60;23.50;;;22.10;36.50;;;;;;5039788;28;20452;-46
2022/03/07 08:25:25;;;;;;;25.50;24.50;;;22.10;36.50;;;;;;5039404;28;20472;-46
2022/03/07 08:27:52;;;;;;;25.53;24.43;;;22.20;36.50;;;;;;5039177;28;20459;-47
2022/03/07 08:30:21;;;;;;;26.37;25.27;;;22.30;36.40;;;;;;5039403;28;21072;-50
2022/03/07 08:32:48;;;;;;;24.13;23.23;;;22.50;36.30;;;;;;5039373;28;20448;-51
2022/03/07 08:35:16;;;;;;;23.30;22.40;;;22.60;36.10;;;;;;5039159;28;20885;-49
2022/03/07 08:37:45;;;;;;;24.27;23.27;;;22.60;35.90;;;;;;5039106;28;21310;-52
2022/03/07 08:40:15;;;;;;;24.50;23.60;;;22.50;35.80;;;;;;5039121;28;20530;-46
2022/03/07 08:42:42;;;;;;;24.97;23.97;;;22.50;35.80;;;;;;5039019;28;20989;-50
2022/03/07 08:45:11;;;;;;;26.27;25.07;;;22.60;35.90;;;;;;5039324;28;20946;-51
2022/03/07 08:47:38;;;;;;;24.80;23.80;;;22.70;35.80;;;;;;5038683;28;20448;-50
2022/03/07 08:50:07;;;;;;;25.77;24.77;;;22.80;35.70;;;;;;5038747;28;20980;-46
2022/03/07 08:52:34;;;;;;;27.93;26.63;;;23.00;35.70;;;;;;5039013;28;20444;-50
2022/03/07 08:55:00;;;;;;;25.60;24.50;;;23.30;35.60;;;;;;5038808;28;20478;-48
2022/03/07 08:57:29;;;;;;;27.50;26.20;;;23.40;35.20;;;;;;5038665;28;20451;-46
2022/03/07 08:59:55;;;;;;;24.77;23.67;;;23.50;35.20;;;;;;5038751;28;21202;-48
2022/03/07 09:02:22;;;;;;;25.50;24.10;;;23.60;35.30;;;;;;5038625;28;20451;-49
2022/03/07 09:04:49;;;;;;;27.10;25.90;;;23.70;35.40;;;;;;5039717;28;21118;-48
2022/03/07 09:07:16;;;;;;;24.77;23.87;;;23.80;35.30;;;;;;5042289;28;20760;-45
2022/03/07 09:09:42;;;;;;;26.77;25.67;;;23.80;35.30;;;;;;5042299;28;20462;-46
2022/03/07 09:12:09;;;;;;;27.40;26.40;;;23.80;35.30;;;;;;5042537;28;20460;-52
2022/03/07 09:14:37;;;;;;;26.10;25.10;;;23.80;35.30;;;;;;5042405;28;20472;-49
2022/03/07 09:17:05;;;;;;;24.60;23.60;;;23.80;35.40;;;;;;5042388;28;20444;-50
2022/03/07 09:19:32;;;;;;;24.27;23.37;;;23.70;35.50;;;;;;5042317;28;20480;-47
2022/03/07 09:21:59;;;;;;;25.00;24.00;;;23.70;35.60;;;;;;5042349;28;20463;-49
2022/03/07 09:24:25;;;;;;;26.10;25.10;;;23.70;35.60;;;;;;5042477;28;20484;-48
2022/03/07 09:26:52;;;;;;;24.47;23.47;;;23.70;35.50;;;;;;5042188;28;20737;-53
2022/03/07 09:29:19;;;;;;;26.83;25.73;;;23.70;35.90;;;;;;5042205;28;20817;-49
2022/03/07 09:31:47;;;;;;;25.10;24.20;;;23.60;35.40;;;;;;5042215;28;20479;-50
2022/03/07 09:34:14;;;;;;;25.33;24.33;;;23.60;35.40;;;;;;5041741;28;20472;-48
2022/03/07 09:36:42;;;;;;;24.07;23.17;;;23.50;35.40;;;;;;5042047;28;20854;-48
2022/03/07 09:39:09;;;;;;;24.70;23.80;;;23.50;35.50;;;;;;5042197;28;20783;-47
2022/03/07 09:41:35;;;;;;;25.63;24.63;;;23.50;35.40;;;;;;5041911;28;20452;-48
2022/03/07 09:44:02;;;;;;;24.13;23.13;;;23.40;34.70;;;;;;5041576;28;20480;-48
2022/03/07 09:46:29;;;;;;;24.10;23.10;;;23.30;34.50;;;;;;5041897;28;20491;-50
2022/03/07 09:48:58;;;;;;;23.37;22.47;;;23.30;34.60;;;;;;5041492;28;20924;-48
2022/03/07 09:51:24;;;;;;;22.40;21.50;;;23.40;35.00;;;;;;5041917;28;20838;-47
2022/03/07 09:53:51;;;;;;;23.37;22.47;;;23.70;35.10;;;;;;5041552;28;20472;-52
2022/03/07 09:56:18;;;;;;;23.70;22.80;;;23.90;35.10;;;;;;5041552;28;20785;-49
2022/03/07 09:58:45;;;;;;;21.43;20.63;;;24.00;35.00;;;;;;5041250;28;20480;-51
2022/03/07 10:01:15;;;;;;;22.30;21.47;;;24.10;35.20;;;;;;5041641;28;20507;-49
2022/03/07 10:03:42;;;;;;;20.70;19.90;;;24.20;35.10;;;;;;5041977;28;20479;-47
2022/03/07 10:06:14;;;;;;;26.50;25.10;;;24.10;35.10;;;;;;5041800;28;20464;-49
2022/03/07 10:08:52;;;;;;;31.77;29.30;;;24.10;35.10;;;;;;5041869;28;20960;-46
2022/03/07 10:11:18;;;;;;;31.93;29.63;;;24.10;35.20;;;;;;5041541;28;20444;-44
2022/03/07 10:13:51;;;;;;;33.23;30.43;;;24.10;35.30;;;;;;5041448;28;20982;-47
2022/03/07 10:16:20;;;;;;;32.97;30.47;;;24.10;35.60;;;;;;5041358;28;20798;-46
2022/03/07 10:18:51;;;;;;;33.67;31.40;;;24.20;35.70;;;;;;5040866;28;20519;-49
2022/03/07 10:21:24;;;;;;;30.63;28.50;;;24.20;35.50;;;;;;5041105;28;20872;-51
2022/03/07 10:23:52;;;;;;;32.73;30.30;;;24.20;35.60;;;;;;5041396;28;20475;-49
2022/03/07 10:26:19;;;;;;;30.40;28.20;;;24.20;35.60;;;;;;5040346;28;20436;-48
2022/03/07 10:28:53;;;;;;;31.20;29.00;;;24.20;35.60;;;;;;5040786;28;20905;-48
2022/03/07 10:31:20;;;;;;;32.23;30.03;;;24.20;35.50;;;;;;5040568;28;20448;-50
2022/03/07 10:33:48;;;;;;;29.80;27.37;;;24.20;35.50;;;;;;5040918;28;20920;-48
2022/03/07 10:36:15;;;;;;;28.17;26.40;;;24.20;35.50;;;;;;5040944;28;20849;-47
2022/03/07 10:38:46;;;;;;;28.10;26.53;;;24.10;35.40;;;;;;5040335;28;20477;-51
2022/03/07 10:41:13;;;;;;;29.60;27.90;;;24.10;35.50;;;;;;5040921;28;20873;-50
2022/03/07 10:43:47;;;;;;;34.60;32.70;;;24.10;35.60;;;;;;5040162;28;20519;-50
2022/03/07 10:46:26;;;;;;;30.20;28.30;;;24.20;35.80;;;;;;5040586;28;20942;-47
2022/03/07 10:48:53;;;;;;;29.73;28.03;;;24.30;35.60;;;;;;5040389;28;20458;-53
2022/03/07 10:51:21;;;;;;;31.23;29.63;;;24.50;35.60;;;;;;5040552;28;20448;-47
2022/03/07 10:53:49;;;;;;;26.27;24.80;;;24.60;35.50;;;;;;5040448;28;20473;-45
2022/03/07 10:56:18;;;;;;;26.73;25.23;;;24.70;35.40;;;;;;5040282;28;20449;-48
2022/03/07 10:58:49;;;;;;;26.20;24.80;;;24.70;35.20;;;;;;5040323;28;20484;-52
2022/03/07 11:01:27;;;;;;;26.50;25.10;;;24.80;35.20;;;;;;5040519;28;20456;-48
2022/03/07 11:03:54;;;;;;;27.80;26.30;;;24.90;35.20;;;;;;5040414;28;20602;-51
2022/03/07 11:06:21;;;;;;;27.17;25.80;;;24.90;35.20;;;;;;5039909;28;20455;-46
2022/03/07 11:08:49;;;;;;;29.27;27.87;;;25.00;35.20;;;;;;5040104;28;20974;-50
2022/03/07 11:11:16;;;;;;;27.03;25.60;;;25.00;35.10;;;;;;5040341;28;20476;-52
2022/03/07 11:13:44;;;;;;;28.70;26.90;;;25.00;35.00;;;;;;5040291;28;20937;-51
2022/03/07 11:16:13;;;;;;;26.67;25.47;;;25.00;35.00;;;;;;5040093;28;20456;-45
2022/03/07 11:18:41;;;;;;;30.90;29.50;;;24.90;34.00;;;;;;5040187;28;20448;-48
2022/03/07 11:21:08;;;;;;;31.57;30.13;;;24.80;33.10;;;;;;5040047;28;20452;-49
2022/03/07 11:23:35;;;;;;;54.23;47.23;;;24.80;32.60;;;;;;5039789;28;20484;-49
2022/03/07 11:26:04;;;;;;;78.03;59.40;;;24.80;32.60;;;;;;5039820;28;20453;-53
2022/03/07 11:28:32;;;;;;;75.87;55.50;;;24.80;33.20;;;;;;5039074;28;21033;-48
2022/03/07 11:30:59;;;;;;;86.77;55.67;;;24.90;33.90;;;;;;5039975;28;20456;-50
2022/03/07 11:33:33;;;;;;;83.63;53.13;;;25.00;34.10;;;;;;5039910;28;20531;-50
2022/03/07 11:36:03;;;;;;;74.87;54.13;;;25.20;34.00;;;;;;5039549;28;20452;-51
2022/03/07 11:38:31;;;;;;;79.80;55.77;;;25.60;33.70;;;;;;5039639;28;20795;-50
2022/03/07 11:41:00;;;;;;;71.97;53.23;;;25.90;33.80;;;;;;5039674;28;20543;-51
2022/03/07 11:43:30;;;;;;;82.13;57.07;;;26.20;33.60;;;;;;5039543;28;20452;-53
2022/03/07 11:45:58;;;;;;;65.17;50.80;;;26.80;33.10;;;;;;5039515;28;20487;-48
2022/03/07 11:48:42;;;;;;;75.37;55.73;;;27.90;32.60;;;;;;5039737;28;21299;-49
2022/03/07 11:51:17;;;;;;;60.83;51.53;;;29.50;31.10;;;;;;5039888;28;20901;-48
2022/03/07 11:53:44;;;;;;;57.10;49.73;;;30.80;29.60;;;;;;5039586;28;20486;-48
2022/03/07 11:56:17;;;;;;;60.53;45.63;;;31.60;28.80;;;;;;5039962;28;20451;-47
2022/03/07 11:58:50;;;;;;;57.10;43.60;;;32.30;28.00;;;;;;5039403;28;20813;-50
2022/03/07 12:01:17;;;;;;;53.10;47.50;;;32.90;28.00;;;;;;5039620;28;20447;-47
2022/03/07 12:03:44;;;;;;;49.57;44.40;;;33.40;27.00;;;;;;5039878;28;20474;-47
2022/03/07 12:06:14;;;;;;;50.10;44.80;;;33.70;26.50;;;;;;5039351;28;20450;-46
2022/03/07 12:08:49;;;;;;;49.50;44.60;;;34.00;26.20;;;;;;5039163;28;20585;-49
2022/03/07 12:11:27;;;;;;;55.67;45.00;;;34.20;25.80;;;;;;5039307;28;20621;-47
2022/03/07 12:14:02;;;;;;;47.40;42.80;;;34.40;25.60;;;;;;5039262;28;20225;-47
2022/03/07 12:16:30;;;;;;;52.53;47.60;;;34.80;25.50;;;;;;5039082;28;20624;-49
2022/03/07 12:19:07;;;;;;;50.53;46.00;;;34.90;25.20;;;;;;5039039;28;20216;-48
2022/03/07 12:21:35;;;;;;;45.88;42.20;;;35.10;25.00;;;;;;5039667;28;20307;-47
2022/03/07 12:24:02;;;;;;;48.03;43.65;;;35.20;24.70;;;;;;5039353;28;20229;-47
2022/03/07 12:26:29;;;;;;;45.70;41.00;;;35.30;24.70;;;;;;5039014;28;20610;-48
2022/03/07 12:28:57;;;;;;;44.50;40.47;;;35.40;24.50;;;;;;5039026;28;20205;-46
2022/03/07 12:31:23;;;;;;;51.50;47.35;;;35.60;24.40;;;;;;5039394;28;20840;-47